createdAt,value
2022-08-28T00:00:02.445Z,425.00
2022-08-28T00:00:32.474Z,426.00
2022-08-28T00:01:02.484Z,426.00
2022-08-28T00:01:32.502Z,426.00
2022-08-28T00:02:02.519Z,426.00
2022-08-28T00:02:32.584Z,427.00
2022-08-28T00:03:02.661Z,429.00
2022-08-28T00:03:32.598Z,430.00
2022-08-28T00:04:02.663Z,430.00
2022-08-28T00:04:32.738Z,430.00
2022-08-28T00:05:02.819Z,431.00
2022-08-28T00:05:32.812Z,433.00
2022-08-28T00:06:02.836Z,432.00
2022-08-28T00:06:32.849Z,431.00
2022-08-28T00:07:02.871Z,432.00
2022-08-28T00:07:32.885Z,434.00
2022-08-28T00:08:02.903Z,434.00
2022-08-28T00:08:32.925Z,434.00
2022-08-28T00:09:02.949Z,433.00
2022-08-28T00:09:32.970Z,434.00
2022-08-28T00:10:02.991Z,432.00
2022-08-28T00:10:33.010Z,432.00
2022-08-28T00:11:03.026Z,431.00
2022-08-28T00:11:33.049Z,432.00
2022-08-28T00:12:03.147Z,434.00
2022-08-28T00:12:33.167Z,435.00
2022-08-28T00:13:03.185Z,435.00
2022-08-28T00:13:33.211Z,435.00
2022-08-28T00:14:03.232Z,435.00
2022-08-28T00:14:33.252Z,434.00
2022-08-28T00:15:03.269Z,432.00
2022-08-28T00:15:33.291Z,432.00
2022-08-28T00:16:03.347Z,432.00
2022-08-28T00:16:33.399Z,431.00
2022-08-28T00:17:03.433Z,432.00
2022-08-28T00:17:33.451Z,432.00
2022-08-28T00:18:03.469Z,431.00
2022-08-28T00:18:33.489Z,431.00
2022-08-28T00:19:03.512Z,432.00
2022-08-28T00:19:38.010Z,433.00
2022-08-28T00:20:03.568Z,434.00
2022-08-28T00:20:33.586Z,435.00
2022-08-28T00:21:03.607Z,436.00
2022-08-28T00:21:33.625Z,437.00
2022-08-28T00:22:03.647Z,436.00
2022-08-28T00:22:33.657Z,435.00
2022-08-28T00:23:03.773Z,436.00
2022-08-28T00:23:42.579Z,437.00
2022-08-28T00:24:03.894Z,437.00
2022-08-28T00:24:34.010Z,437.00
2022-08-28T00:25:04.129Z,437.00
2022-08-28T00:25:34.232Z,436.00
2022-08-28T00:26:04.344Z,436.00
2022-08-28T00:26:34.366Z,436.00
2022-08-28T00:27:04.474Z,436.00
2022-08-28T00:27:34.577Z,435.00
2022-08-28T00:28:05.465Z,435.00
2022-08-28T00:28:35.002Z,434.00
2022-08-28T00:29:04.732Z,435.00
2022-08-28T00:29:34.841Z,435.00
2022-08-28T00:30:04.950Z,432.00
2022-08-28T00:30:35.060Z,432.00
2022-08-28T00:31:05.283Z,432.00
2022-08-28T00:31:35.196Z,433.00
2022-08-28T00:32:05.189Z,435.00
2022-08-28T00:32:35.209Z,436.00
2022-08-28T00:33:05.233Z,435.00
2022-08-28T00:33:35.266Z,433.00
2022-08-28T00:34:05.273Z,432.00
2022-08-28T00:34:35.300Z,433.00
2022-08-28T00:35:05.319Z,434.00
2022-08-28T00:35:35.338Z,435.00
2022-08-28T00:36:05.351Z,437.00
2022-08-28T00:36:35.376Z,437.00
2022-08-28T00:37:05.402Z,437.00
2022-08-28T00:37:35.417Z,436.00
2022-08-28T00:38:05.506Z,436.00
2022-08-28T00:38:35.462Z,435.00
2022-08-28T00:39:05.482Z,434.00
2022-08-28T00:39:35.603Z,434.00
2022-08-28T00:40:05.668Z,434.00
2022-08-28T00:40:35.684Z,433.00
2022-08-28T00:41:05.735Z,432.00
2022-08-28T00:41:36.450Z,432.00
2022-08-28T00:42:05.849Z,434.00
2022-08-28T00:42:35.865Z,435.00
2022-08-28T00:43:05.892Z,436.00
2022-08-28T00:43:35.908Z,438.00
2022-08-28T00:44:05.925Z,437.00
2022-08-28T00:44:35.941Z,437.00
2022-08-28T00:45:05.956Z,435.00
2022-08-28T00:45:39.614Z,434.00
2022-08-28T00:46:06.056Z,433.00
2022-08-28T00:46:36.127Z,435.00
2022-08-28T00:47:06.136Z,435.00
2022-08-28T00:47:36.150Z,436.00
2022-08-28T00:48:06.168Z,436.00
2022-08-28T00:48:36.193Z,434.00
2022-08-28T00:49:06.235Z,434.00
2022-08-28T00:49:36.257Z,433.00
2022-08-28T00:50:06.278Z,433.00
2022-08-28T00:50:36.292Z,434.00
2022-08-28T00:51:06.309Z,433.00
2022-08-28T00:51:36.330Z,434.00
2022-08-28T00:52:06.346Z,433.00
2022-08-28T00:52:36.365Z,432.00
2022-08-28T00:53:06.404Z,433.00
2022-08-28T00:53:36.431Z,434.00
2022-08-28T00:54:07.913Z,435.00
2022-08-28T00:54:36.551Z,433.00
2022-08-28T00:55:06.605Z,433.00
2022-08-28T00:55:36.631Z,434.00
2022-08-28T00:56:13.072Z,435.00
2022-08-28T00:56:36.683Z,434.00
2022-08-28T00:57:06.703Z,433.00
2022-08-28T00:57:36.723Z,433.00
2022-08-28T00:58:06.753Z,434.00
2022-08-28T00:58:36.773Z,435.00
2022-08-28T00:59:06.798Z,436.00
2022-08-28T00:59:36.807Z,435.00
2022-08-28T01:00:06.825Z,435.00
2022-08-28T01:00:36.848Z,435.00
2022-08-28T01:01:06.867Z,435.00
2022-08-28T01:01:36.918Z,434.00
2022-08-28T01:02:07.054Z,434.00
2022-08-28T01:02:37.049Z,434.00
2022-08-28T01:03:07.128Z,435.00
2022-08-28T01:03:37.117Z,434.00
2022-08-28T01:04:07.137Z,434.00
2022-08-28T01:04:37.156Z,433.00
2022-08-28T01:05:07.178Z,434.00
2022-08-28T01:05:37.196Z,433.00
2022-08-28T01:06:07.212Z,435.00
2022-08-28T01:06:37.232Z,434.00
2022-08-28T01:07:07.256Z,434.00
2022-08-28T01:07:37.274Z,433.00
2022-08-28T01:08:07.292Z,432.00
2022-08-28T01:08:37.321Z,434.00
2022-08-28T01:09:07.331Z,433.00
2022-08-28T01:09:37.352Z,432.00
2022-08-28T01:10:07.384Z,430.00
2022-08-28T01:10:37.401Z,430.00
2022-08-28T01:11:07.414Z,430.00
2022-08-28T01:11:37.435Z,431.00
2022-08-28T01:12:07.507Z,432.00
2022-08-28T01:12:37.525Z,432.00
2022-08-28T01:13:07.546Z,433.00
2022-08-28T01:13:37.565Z,433.00
2022-08-28T01:14:07.589Z,430.00
2022-08-28T01:14:37.605Z,431.00
2022-08-28T01:15:07.620Z,432.00
2022-08-28T01:15:37.701Z,433.00
2022-08-28T01:16:07.787Z,435.00
2022-08-28T01:16:37.822Z,434.00
2022-08-28T01:17:07.839Z,434.00
2022-08-28T01:17:37.856Z,434.00
2022-08-28T01:18:08.586Z,434.00
2022-08-28T01:18:37.959Z,434.00
2022-08-28T01:19:07.977Z,434.00
2022-08-28T01:19:37.998Z,433.00
2022-08-28T01:20:08.021Z,433.00
2022-08-28T01:20:38.035Z,435.00
2022-08-28T01:21:08.055Z,434.00
2022-08-28T01:21:38.075Z,435.00
2022-08-28T01:22:08.093Z,434.00
2022-08-28T01:22:38.089Z,435.00
2022-08-28T01:23:08.202Z,435.00
2022-08-28T01:23:38.306Z,436.00
2022-08-28T01:24:08.410Z,437.00
2022-08-28T01:24:38.519Z,437.00
2022-08-28T01:25:08.633Z,437.00
2022-08-28T01:25:38.739Z,435.00
2022-08-28T01:26:11.814Z,434.00
2022-08-28T01:26:38.919Z,434.00
2022-08-28T01:27:09.027Z,435.00
2022-08-28T01:27:39.137Z,434.00
2022-08-28T01:28:09.291Z,434.00
2022-08-28T01:28:39.257Z,434.00
2022-08-28T01:29:09.373Z,433.00
2022-08-28T01:29:39.494Z,433.00
2022-08-28T01:30:09.594Z,434.00
2022-08-28T01:30:39.704Z,434.00
2022-08-28T01:31:09.879Z,434.00
2022-08-28T01:31:39.936Z,435.00
2022-08-28T01:32:09.921Z,435.00
2022-08-28T01:32:39.921Z,435.00
2022-08-28T01:33:09.946Z,436.00
2022-08-28T01:33:42.323Z,437.00
2022-08-28T01:34:09.982Z,435.00
2022-08-28T01:34:39.999Z,435.00
2022-08-28T01:35:10.015Z,436.00
2022-08-28T01:35:40.032Z,436.00
2022-08-28T01:36:10.048Z,436.00
2022-08-28T01:36:40.070Z,437.00
2022-08-28T01:37:10.088Z,437.00
2022-08-28T01:37:40.103Z,436.00
2022-08-28T01:38:10.127Z,437.00
2022-08-28T01:38:40.147Z,438.00
2022-08-28T01:39:10.164Z,438.00
2022-08-28T01:39:40.177Z,438.00
2022-08-28T01:40:10.264Z,440.00
2022-08-28T01:40:40.470Z,440.00
2022-08-28T01:41:10.362Z,439.00
2022-08-28T01:41:40.382Z,440.00
2022-08-28T01:42:10.395Z,440.00
2022-08-28T01:42:40.411Z,440.00
2022-08-28T01:43:10.438Z,440.00
2022-08-28T01:43:40.453Z,440.00
2022-08-28T01:44:10.475Z,440.00
2022-08-28T01:44:40.490Z,439.00
2022-08-28T01:45:10.510Z,440.00
2022-08-28T01:45:40.528Z,442.00
2022-08-28T01:46:10.620Z,440.00
2022-08-28T01:46:40.703Z,441.00
2022-08-28T01:47:10.705Z,442.00
2022-08-28T01:47:40.729Z,444.00
2022-08-28T01:48:10.905Z,446.00
2022-08-28T01:48:40.807Z,445.00
2022-08-28T01:49:10.822Z,444.00
2022-08-28T01:49:40.836Z,443.00
2022-08-28T01:50:10.858Z,443.00
2022-08-28T01:50:40.874Z,443.00
2022-08-28T01:51:10.893Z,443.00
2022-08-28T01:51:40.918Z,441.00
2022-08-28T01:52:11.723Z,441.00
2022-08-28T01:52:41.048Z,440.00
2022-08-28T01:53:12.404Z,440.00
2022-08-28T01:53:41.166Z,441.00
2022-08-28T01:54:11.868Z,439.00
2022-08-28T01:54:41.251Z,440.00
2022-08-28T01:55:11.253Z,439.00
2022-08-28T01:55:41.271Z,440.00
2022-08-28T01:56:11.298Z,439.00
2022-08-28T01:56:41.311Z,438.00
2022-08-28T01:57:11.326Z,437.00
2022-08-28T01:57:41.351Z,438.00
2022-08-28T01:58:11.681Z,437.00
2022-08-28T01:58:41.382Z,439.00
2022-08-28T01:59:11.397Z,438.00
2022-08-28T01:59:41.417Z,439.00
2022-08-28T02:00:11.435Z,439.00
2022-08-28T02:00:41.455Z,438.00
2022-08-28T02:01:11.553Z,438.00
2022-08-28T02:01:41.629Z,438.00
2022-08-28T02:02:11.630Z,438.00
2022-08-28T02:02:41.653Z,438.00
2022-08-28T02:03:12.246Z,439.00
2022-08-28T02:03:41.690Z,440.00
2022-08-28T02:04:11.782Z,440.00
2022-08-28T02:04:44.987Z,439.00
2022-08-28T02:05:11.839Z,439.00
2022-08-28T02:05:41.858Z,438.00
2022-08-28T02:06:11.876Z,437.00
2022-08-28T02:06:41.890Z,436.00
2022-08-28T02:07:11.913Z,437.00
2022-08-28T02:07:41.937Z,437.00
2022-08-28T02:08:12.161Z,437.00
2022-08-28T02:08:42.056Z,438.00
2022-08-28T02:09:14.496Z,438.00
2022-08-28T02:09:42.106Z,438.00
2022-08-28T02:10:12.122Z,436.00
2022-08-28T02:10:42.141Z,436.00
2022-08-28T02:11:12.162Z,434.00
2022-08-28T02:11:42.185Z,433.00
2022-08-28T02:12:12.235Z,434.00
2022-08-28T02:12:42.256Z,435.00
2022-08-28T02:13:12.279Z,433.00
2022-08-28T02:13:42.295Z,431.00
2022-08-28T02:14:12.391Z,433.00
2022-08-28T02:14:42.411Z,434.00
2022-08-28T02:15:12.434Z,434.00
2022-08-28T02:15:42.552Z,434.00
2022-08-28T02:16:12.590Z,434.00
2022-08-28T02:16:42.526Z,433.00
2022-08-28T02:17:12.553Z,435.00
2022-08-28T02:17:42.583Z,435.00
2022-08-28T02:18:12.794Z,437.00
2022-08-28T02:18:42.693Z,437.00
2022-08-28T02:19:12.718Z,436.00
2022-08-28T02:19:42.744Z,437.00
2022-08-28T02:20:12.770Z,436.00
2022-08-28T02:20:42.794Z,436.00
2022-08-28T02:21:12.814Z,434.00
2022-08-28T02:21:42.833Z,434.00
2022-08-28T02:22:12.861Z,434.00
2022-08-28T02:22:42.855Z,434.00
2022-08-28T02:23:12.967Z,436.00
2022-08-28T02:23:43.070Z,435.00
2022-08-28T02:24:13.177Z,435.00
2022-08-28T02:24:43.285Z,436.00
2022-08-28T02:25:13.391Z,436.00
2022-08-28T02:25:43.499Z,436.00
2022-08-28T02:26:13.608Z,436.00
2022-08-28T02:26:43.716Z,434.00
2022-08-28T02:27:13.817Z,433.00
2022-08-28T02:27:43.924Z,433.00
2022-08-28T02:28:14.338Z,433.00
2022-08-28T02:28:44.130Z,433.00
2022-08-28T02:29:14.236Z,431.00
2022-08-28T02:29:44.348Z,432.00
2022-08-28T02:30:14.454Z,432.00
2022-08-28T02:30:44.639Z,432.00
2022-08-28T02:31:14.690Z,433.00
2022-08-28T02:31:44.683Z,436.00
2022-08-28T02:32:14.792Z,439.00
2022-08-28T02:32:44.810Z,439.00
2022-08-28T02:33:14.830Z,438.00
2022-08-28T02:33:44.849Z,438.00
2022-08-28T02:34:14.863Z,438.00
2022-08-28T02:34:44.882Z,438.00
2022-08-28T02:35:14.898Z,439.00
2022-08-28T02:35:44.914Z,438.00
2022-08-28T02:36:14.929Z,438.00
2022-08-28T02:36:44.951Z,437.00
2022-08-28T02:37:14.977Z,436.00
2022-08-28T02:37:45.423Z,435.00
2022-08-28T02:38:15.048Z,435.00
2022-08-28T02:38:45.069Z,433.00
2022-08-28T02:39:15.087Z,434.00
2022-08-28T02:39:45.111Z,434.00
2022-08-28T02:40:15.162Z,434.00
2022-08-28T02:40:45.164Z,434.00
2022-08-28T02:41:15.181Z,434.00
2022-08-28T02:41:45.197Z,434.00
2022-08-28T02:42:15.218Z,434.00
2022-08-28T02:42:45.241Z,435.00
2022-08-28T02:43:15.265Z,436.00
2022-08-28T02:43:45.282Z,435.00
2022-08-28T02:44:15.305Z,436.00
2022-08-28T02:44:45.330Z,435.00
2022-08-28T02:45:15.350Z,436.00
2022-08-28T02:45:45.391Z,437.00
2022-08-28T02:46:15.426Z,435.00
2022-08-28T02:46:45.477Z,434.00
2022-08-28T02:47:15.494Z,432.00
2022-08-28T02:47:45.510Z,433.00
2022-08-28T02:48:17.157Z,434.00
2022-08-28T02:48:45.538Z,435.00
2022-08-28T02:49:15.558Z,435.00
2022-08-28T02:49:45.578Z,433.00
2022-08-28T02:50:15.592Z,432.00
2022-08-28T02:50:45.609Z,431.00
2022-08-28T02:51:15.627Z,431.00
2022-08-28T02:51:45.645Z,431.00
2022-08-28T02:52:15.661Z,432.00
2022-08-28T02:52:45.681Z,432.00
2022-08-28T02:53:15.702Z,432.00
2022-08-28T02:53:45.723Z,432.00
2022-08-28T02:54:15.745Z,431.00
2022-08-28T02:54:45.771Z,431.00
2022-08-28T02:55:15.788Z,432.00
2022-08-28T02:55:45.804Z,432.00
2022-08-28T02:56:15.821Z,433.00
2022-08-28T02:56:45.842Z,432.00
2022-08-28T02:57:15.857Z,433.00
2022-08-28T02:57:45.871Z,434.00
2022-08-28T02:58:16.188Z,436.00
2022-08-28T02:58:45.954Z,435.00
2022-08-28T02:59:15.978Z,436.00
2022-08-28T02:59:46.000Z,437.00
2022-08-28T03:00:16.016Z,436.00
2022-08-28T03:00:46.035Z,438.00
2022-08-28T03:01:16.102Z,436.00
2022-08-28T03:01:46.135Z,436.00
2022-08-28T03:02:16.228Z,436.00
2022-08-28T03:02:46.349Z,435.00
2022-08-28T03:03:16.268Z,434.00
2022-08-28T03:03:46.288Z,432.00
2022-08-28T03:04:16.309Z,431.00
2022-08-28T03:04:46.329Z,429.00
2022-08-28T03:05:16.353Z,428.00
2022-08-28T03:05:46.372Z,428.00
2022-08-28T03:06:16.388Z,428.00
2022-08-28T03:06:46.405Z,427.00
2022-08-28T03:07:16.427Z,427.00
2022-08-28T03:07:46.446Z,428.00
2022-08-28T03:08:16.466Z,427.00
2022-08-28T03:08:46.484Z,428.00
2022-08-28T03:09:16.507Z,429.00
2022-08-28T03:09:46.534Z,429.00
2022-08-28T03:10:16.551Z,429.00
2022-08-28T03:10:46.571Z,430.00
2022-08-28T03:11:16.574Z,428.00
2022-08-28T03:11:46.593Z,428.00
2022-08-28T03:12:16.614Z,426.00
2022-08-28T03:12:46.633Z,426.00
2022-08-28T03:13:26.539Z,427.00
2022-08-28T03:13:46.695Z,427.00
2022-08-28T03:14:16.716Z,429.00
2022-08-28T03:14:46.738Z,431.00
2022-08-28T03:15:16.761Z,431.00
2022-08-28T03:15:46.779Z,430.00
2022-08-28T03:16:16.872Z,429.00
2022-08-28T03:16:46.918Z,430.00
2022-08-28T03:17:16.919Z,430.00
2022-08-28T03:17:47.945Z,429.00
2022-08-28T03:18:16.939Z,429.00
2022-08-28T03:18:46.931Z,430.00
2022-08-28T03:19:16.970Z,433.00
2022-08-28T03:19:46.984Z,432.00
2022-08-28T03:20:17.005Z,432.00
2022-08-28T03:20:47.023Z,432.00
2022-08-28T03:21:17.040Z,433.00
2022-08-28T03:21:47.052Z,433.00
2022-08-28T03:22:17.072Z,434.00
2022-08-28T03:22:47.195Z,435.00
2022-08-28T03:23:17.181Z,434.00
2022-08-28T03:23:47.291Z,434.00
2022-08-28T03:24:17.398Z,431.00
2022-08-28T03:24:47.502Z,430.00
2022-08-28T03:25:17.606Z,430.00
2022-08-28T03:25:47.709Z,433.00
2022-08-28T03:26:17.821Z,433.00
2022-08-28T03:26:47.924Z,434.00
2022-08-28T03:27:18.032Z,434.00
2022-08-28T03:27:48.163Z,434.00
2022-08-28T03:28:18.145Z,433.00
2022-08-28T03:28:48.246Z,435.00
2022-08-28T03:29:18.353Z,436.00
2022-08-28T03:29:48.458Z,437.00
2022-08-28T03:30:18.562Z,437.00
2022-08-28T03:30:48.750Z,436.00
2022-08-28T03:31:18.802Z,437.00
2022-08-28T03:31:48.885Z,438.00
2022-08-28T03:32:18.996Z,439.00
2022-08-28T03:32:49.069Z,438.00
2022-08-28T03:33:19.085Z,436.00
2022-08-28T03:33:49.108Z,436.00
2022-08-28T03:34:19.129Z,437.00
2022-08-28T03:34:49.150Z,436.00
2022-08-28T03:35:19.167Z,437.00
2022-08-28T03:35:49.184Z,437.00
2022-08-28T03:36:19.207Z,440.00
2022-08-28T03:36:49.231Z,441.00
2022-08-28T03:37:19.248Z,441.00
2022-08-28T03:37:49.285Z,441.00
2022-08-28T03:38:19.301Z,441.00
2022-08-28T03:38:49.324Z,439.00
2022-08-28T03:39:19.351Z,439.00
2022-08-28T03:39:49.373Z,438.00
2022-08-28T03:40:19.439Z,437.00
2022-08-28T03:40:49.487Z,438.00
2022-08-28T03:41:19.514Z,439.00
2022-08-28T03:41:49.537Z,440.00
2022-08-28T03:42:19.555Z,442.00
2022-08-28T03:42:53.127Z,442.00
2022-08-28T03:43:19.615Z,443.00
2022-08-28T03:43:49.634Z,444.00
2022-08-28T03:44:19.658Z,444.00
2022-08-28T03:44:49.674Z,444.00
2022-08-28T03:45:19.692Z,443.00
2022-08-28T03:45:49.731Z,442.00
2022-08-28T03:46:19.813Z,441.00
2022-08-28T03:46:49.813Z,441.00
2022-08-28T03:47:19.814Z,442.00
2022-08-28T03:47:49.941Z,441.00
2022-08-28T03:48:19.917Z,442.00
2022-08-28T03:48:49.933Z,441.00
2022-08-28T03:49:19.951Z,441.00
2022-08-28T03:49:49.944Z,439.00
2022-08-28T03:50:19.995Z,440.00
2022-08-28T03:50:49.991Z,441.00
2022-08-28T03:51:20.100Z,441.00
2022-08-28T03:51:50.144Z,440.00
2022-08-28T03:52:20.160Z,440.00
2022-08-28T03:52:50.178Z,440.00
2022-08-28T03:53:20.201Z,440.00
2022-08-28T03:53:50.221Z,441.00
2022-08-28T03:54:20.240Z,442.00
2022-08-28T03:54:50.254Z,442.00
2022-08-28T03:55:20.269Z,442.00
2022-08-28T03:55:50.287Z,440.00
2022-08-28T03:56:20.389Z,441.00
2022-08-28T03:56:50.401Z,441.00
2022-08-28T03:57:20.417Z,441.00
2022-08-28T03:57:50.441Z,441.00
2022-08-28T03:58:20.463Z,440.00
2022-08-28T03:58:50.480Z,440.00
2022-08-28T03:59:20.496Z,439.00
2022-08-28T03:59:50.532Z,440.00
2022-08-28T04:00:20.551Z,440.00
2022-08-28T04:00:50.568Z,439.00
2022-08-28T04:01:20.666Z,439.00
2022-08-28T04:01:50.763Z,439.00
2022-08-28T04:02:20.782Z,440.00
2022-08-28T04:02:50.857Z,439.00
2022-08-28T04:03:20.966Z,439.00
2022-08-28T04:03:50.993Z,438.00
2022-08-28T04:04:21.015Z,439.00
2022-08-28T04:04:51.036Z,437.00
2022-08-28T04:05:21.051Z,436.00
2022-08-28T04:05:51.072Z,436.00
2022-08-28T04:06:21.091Z,437.00
2022-08-28T04:06:51.107Z,437.00
2022-08-28T04:07:21.128Z,437.00
2022-08-28T04:07:51.151Z,437.00
2022-08-28T04:08:21.188Z,436.00
2022-08-28T04:08:51.206Z,436.00
2022-08-28T04:09:21.224Z,437.00
2022-08-28T04:09:51.247Z,436.00
2022-08-28T04:10:21.265Z,436.00
2022-08-28T04:10:51.287Z,437.00
2022-08-28T04:11:21.303Z,434.00
2022-08-28T04:11:51.325Z,433.00
2022-08-28T04:12:21.345Z,435.00
2022-08-28T04:12:51.364Z,437.00
2022-08-28T04:13:21.390Z,437.00
2022-08-28T04:13:51.409Z,437.00
2022-08-28T04:14:21.431Z,437.00
2022-08-28T04:14:51.449Z,438.00
2022-08-28T04:15:21.472Z,437.00
2022-08-28T04:15:51.485Z,438.00
2022-08-28T04:16:21.552Z,438.00
2022-08-28T04:16:51.717Z,438.00
2022-08-28T04:17:21.664Z,438.00
2022-08-28T04:17:51.680Z,437.00
2022-08-28T04:18:21.697Z,438.00
2022-08-28T04:18:51.712Z,436.00
2022-08-28T04:19:21.727Z,436.00
2022-08-28T04:19:51.749Z,438.00
2022-08-28T04:20:21.773Z,438.00
2022-08-28T04:20:51.787Z,439.00
2022-08-28T04:21:21.805Z,441.00
2022-08-28T04:21:51.826Z,442.00
2022-08-28T04:22:21.839Z,442.00
2022-08-28T04:22:53.002Z,442.00
2022-08-28T04:23:21.945Z,441.00
2022-08-28T04:23:51.935Z,442.00
2022-08-28T04:24:22.040Z,440.00
2022-08-28T04:24:52.144Z,439.00
2022-08-28T04:25:22.249Z,438.00
2022-08-28T04:25:52.356Z,436.00
2022-08-28T04:26:22.466Z,437.00
2022-08-28T04:26:52.569Z,435.00
2022-08-28T04:27:22.674Z,434.00
2022-08-28T04:27:52.665Z,432.00
2022-08-28T04:28:22.820Z,433.00
2022-08-28T04:28:52.806Z,432.00
2022-08-28T04:29:22.902Z,431.00
2022-08-28T04:29:53.014Z,432.00
2022-08-28T04:30:23.120Z,430.00
2022-08-28T04:30:53.221Z,431.00
2022-08-28T04:31:31.607Z,431.00
2022-08-28T04:31:53.361Z,435.00
2022-08-28T04:32:23.442Z,430.00
2022-08-28T04:32:53.462Z,430.00
2022-08-28T04:33:23.478Z,429.00
2022-08-28T04:33:53.495Z,429.00
2022-08-28T04:34:23.511Z,430.00
2022-08-28T04:34:53.531Z,430.00
2022-08-28T04:35:23.557Z,431.00
2022-08-28T04:35:53.573Z,432.00
2022-08-28T04:36:23.600Z,432.00
2022-08-28T04:36:53.615Z,430.00
2022-08-28T04:37:23.637Z,429.00
2022-08-28T04:37:56.473Z,430.00
2022-08-28T04:38:23.873Z,430.00
2022-08-28T04:38:53.888Z,430.00
2022-08-28T04:39:23.904Z,432.00
2022-08-28T04:39:53.988Z,430.00
2022-08-28T04:40:24.043Z,431.00
2022-08-28T04:40:54.031Z,431.00
2022-08-28T04:41:24.064Z,433.00
2022-08-28T04:41:54.068Z,434.00
2022-08-28T04:42:24.092Z,433.00
2022-08-28T04:42:54.110Z,433.00
2022-08-28T04:43:24.130Z,433.00
2022-08-28T04:43:54.147Z,431.00
2022-08-28T04:44:24.169Z,431.00
2022-08-28T04:44:54.177Z,431.00
2022-08-28T04:45:24.191Z,432.00
2022-08-28T04:45:54.259Z,431.00
2022-08-28T04:46:24.257Z,432.00
2022-08-28T04:46:54.274Z,432.00
2022-08-28T04:47:24.339Z,431.00
2022-08-28T04:47:54.356Z,431.00
2022-08-28T04:48:24.377Z,432.00
2022-08-28T04:48:54.389Z,432.00
2022-08-28T04:49:25.976Z,433.00
2022-08-28T04:49:54.459Z,434.00
2022-08-28T04:50:24.481Z,434.00
2022-08-28T04:50:54.497Z,434.00
2022-08-28T04:51:24.510Z,434.00
2022-08-28T04:51:54.524Z,433.00
2022-08-28T04:52:24.538Z,434.00
2022-08-28T04:52:54.561Z,432.00
2022-08-28T04:53:24.583Z,431.00
2022-08-28T04:53:54.602Z,431.00
2022-08-28T04:54:24.629Z,433.00
2022-08-28T04:54:54.649Z,434.00
2022-08-28T04:55:53.392Z,434.00
2022-08-28T04:55:55.422Z,432.00
2022-08-28T04:56:24.696Z,432.00
2022-08-28T04:56:54.712Z,432.00
2022-08-28T04:57:24.723Z,434.00
2022-08-28T04:57:54.740Z,435.00
2022-08-28T04:58:24.764Z,434.00
2022-08-28T04:58:54.776Z,433.00
2022-08-28T04:59:24.797Z,433.00
2022-08-28T04:59:54.817Z,433.00
2022-08-28T05:00:24.841Z,433.00
2022-08-28T05:00:55.041Z,432.00
2022-08-28T05:01:25.079Z,433.00
2022-08-28T05:01:55.058Z,434.00
2022-08-28T05:02:25.125Z,436.00
2022-08-28T05:02:55.129Z,435.00
2022-08-28T05:03:25.148Z,436.00
2022-08-28T05:03:55.161Z,437.00
2022-08-28T05:04:25.176Z,434.00
2022-08-28T05:04:55.193Z,434.00
2022-08-28T05:05:25.210Z,434.00
2022-08-28T05:05:55.226Z,432.00
2022-08-28T05:06:25.242Z,432.00
2022-08-28T05:06:55.268Z,432.00
2022-08-28T05:07:25.282Z,434.00
2022-08-28T05:07:55.298Z,432.00
2022-08-28T05:08:25.313Z,433.00
2022-08-28T05:08:55.331Z,434.00
2022-08-28T05:09:25.344Z,435.00
2022-08-28T05:09:55.368Z,433.00
2022-08-28T05:10:25.405Z,434.00
2022-08-28T05:10:55.398Z,436.00
2022-08-28T05:11:34.441Z,436.00
2022-08-28T05:11:55.444Z,437.00
2022-08-28T05:12:25.456Z,436.00
2022-08-28T05:12:55.486Z,436.00
2022-08-28T05:13:25.504Z,438.00
2022-08-28T05:13:55.521Z,438.00
2022-08-28T05:14:25.533Z,438.00
2022-08-28T05:14:55.546Z,436.00
2022-08-28T05:15:25.638Z,438.00
2022-08-28T05:15:55.719Z,437.00
2022-08-28T05:16:25.758Z,434.00
2022-08-28T05:16:55.795Z,435.00
2022-08-28T05:17:25.816Z,435.00
2022-08-28T05:17:55.934Z,435.00
2022-08-28T05:18:25.952Z,434.00
2022-08-28T05:18:55.975Z,434.00
2022-08-28T05:19:25.993Z,435.00
2022-08-28T05:19:56.006Z,434.00
2022-08-28T05:20:26.022Z,432.00
2022-08-28T05:20:56.038Z,431.00
2022-08-28T05:21:26.060Z,430.00
2022-08-28T05:21:56.076Z,430.00
2022-08-28T05:22:26.081Z,430.00
2022-08-28T05:22:56.190Z,430.00
2022-08-28T05:23:26.297Z,432.00
2022-08-28T05:23:56.401Z,432.00
2022-08-28T05:24:26.507Z,432.00
2022-08-28T05:24:56.609Z,430.00
2022-08-28T05:25:26.713Z,430.00
2022-08-28T05:25:56.820Z,430.00
2022-08-28T05:26:29.607Z,431.00
2022-08-28T05:26:56.948Z,431.00
2022-08-28T05:27:27.002Z,432.00
2022-08-28T05:27:57.117Z,435.00
2022-08-28T05:28:27.219Z,436.00
2022-08-28T05:28:57.325Z,436.00
2022-08-28T05:29:27.429Z,437.00
2022-08-28T05:30:01.743Z,436.00
2022-08-28T05:30:27.638Z,435.00
2022-08-28T05:30:57.741Z,436.00
2022-08-28T05:31:27.912Z,436.00
2022-08-28T05:31:57.990Z,437.00
2022-08-28T05:32:27.950Z,436.00
2022-08-28T05:32:57.976Z,434.00
2022-08-28T05:33:27.999Z,435.00
2022-08-28T05:33:58.017Z,435.00
2022-08-28T05:34:28.037Z,435.00
2022-08-28T05:34:58.050Z,434.00
2022-08-28T05:35:28.068Z,433.00
2022-08-28T05:35:58.089Z,434.00
2022-08-28T05:36:32.942Z,434.00
2022-08-28T05:36:58.142Z,433.00
2022-08-28T05:37:28.165Z,432.00
2022-08-28T05:37:58.326Z,433.00
2022-08-28T05:38:28.210Z,431.00
2022-08-28T05:38:58.227Z,430.00
2022-08-28T05:39:28.243Z,429.00
2022-08-28T05:39:58.313Z,429.00
2022-08-28T05:40:28.389Z,429.00
2022-08-28T05:40:58.415Z,431.00
2022-08-28T05:41:28.432Z,431.00
2022-08-28T05:41:58.461Z,430.00
2022-08-28T05:42:30.649Z,431.00
2022-08-28T05:42:58.502Z,432.00
2022-08-28T05:43:28.534Z,434.00
2022-08-28T05:43:58.554Z,434.00
2022-08-28T05:44:28.576Z,432.00
2022-08-28T05:44:58.601Z,433.00
2022-08-28T05:45:28.617Z,433.00
2022-08-28T05:45:58.677Z,432.00
2022-08-28T05:46:28.733Z,432.00
2022-08-28T05:46:58.760Z,431.00
2022-08-28T05:47:28.777Z,431.00
2022-08-28T05:47:58.803Z,430.00
2022-08-28T05:48:30.461Z,429.00
2022-08-28T05:48:58.853Z,431.00
2022-08-28T05:49:28.880Z,430.00
2022-08-28T05:49:58.898Z,430.00
2022-08-28T05:50:28.919Z,431.00
2022-08-28T05:50:58.935Z,431.00
2022-08-28T05:51:28.971Z,433.00
2022-08-28T05:51:58.972Z,430.00
2022-08-28T05:52:28.997Z,431.00
2022-08-28T05:52:59.023Z,432.00
2022-08-28T05:53:29.048Z,434.00
2022-08-28T05:53:59.067Z,435.00
2022-08-28T05:54:29.254Z,435.00
2022-08-28T05:54:59.108Z,435.00
2022-08-28T05:55:29.131Z,435.00
2022-08-28T05:55:59.152Z,436.00
2022-08-28T05:56:29.175Z,434.00
2022-08-28T05:56:59.194Z,434.00
2022-08-28T05:57:29.214Z,434.00
2022-08-28T05:57:59.235Z,434.00
2022-08-28T05:58:29.249Z,434.00
2022-08-28T05:58:59.271Z,435.00
2022-08-28T05:59:29.297Z,434.00
2022-08-28T05:59:59.320Z,432.00
2022-08-28T06:00:29.339Z,431.00
2022-08-28T06:00:59.364Z,430.00
2022-08-28T06:01:29.440Z,430.00
2022-08-28T06:02:03.650Z,429.00
2022-08-28T06:02:29.469Z,428.00
2022-08-28T06:02:59.486Z,428.00
2022-08-28T06:03:29.505Z,428.00
2022-08-28T06:03:59.596Z,428.00
2022-08-28T06:04:29.632Z,429.00
2022-08-28T06:04:59.552Z,428.00
2022-08-28T06:05:29.570Z,429.00
2022-08-28T06:05:59.592Z,429.00
2022-08-28T06:06:29.614Z,429.00
2022-08-28T06:06:59.640Z,429.00
2022-08-28T06:07:29.660Z,428.00
2022-08-28T06:07:59.790Z,427.00
2022-08-28T06:08:29.799Z,426.00
2022-08-28T06:08:59.815Z,426.00
2022-08-28T06:09:30.257Z,427.00
2022-08-28T06:09:59.858Z,428.00
2022-08-28T06:10:29.875Z,429.00
2022-08-28T06:10:59.894Z,429.00
2022-08-28T06:11:30.729Z,428.00
2022-08-28T06:11:59.949Z,429.00
2022-08-28T06:12:29.974Z,428.00
2022-08-28T06:13:00.003Z,429.00
2022-08-28T06:13:30.028Z,428.00
2022-08-28T06:14:00.043Z,428.00
2022-08-28T06:14:30.157Z,427.00